Accueil
METAR-TAF:

METAR-TAF

Aéroports :

Annecy, France

Aéroport d'Annecy Haute-Savoie Mont-Blanc

latitude: 45-55-45N, longitude: 006-05-56E, altitude: 463 m

Observation

Le bulletin a été fait il y a 27 minutes, à 21:00 UTC
Vent 7 kt de sud-ouest
Température 5°C
Humidité 93%
Pression 1013 hPa
Visibilité 10 km ou plus
pluie faible

METAR: LFLP 262100Z AUTO 23007KT 9999 -RA ////// 05/04 Q1013

Heure: 23:27 (21:27 UTC)

Prévision

Le bulletin a été fait il y a 19 heures et 27 minutes, à 02:00 UTC
Prévision valable du 26 à 03 UTC au 27 à 03 UTC
Vent 5 kt de direction variable
Visibilité 10 km ou plus
Nuages fragmentés à une hauteur de 4500 ft
pluie faible
Temporairement
du 26 à 03 UTC au 26 à 15 UTC
Visibilité: 5000 m
Nuages épars à une hauteur de 2500 ft
Nuages fragmentés à une hauteur de 3000 ft
Ciel couvert à une hauteur de 4500 ft
pluie

TAF: LFLP 260200Z 2603/2703 VRB05KT 9999 -RA BKN045 TEMPO 2603/2615 5000 RA SCT025 BKN030 OVC045

Observations et prévisions météorologiques de plus de 4000 aéroports (messages METAR et TAF).

Les stations disponibles sont représentées par des disques jaunes et rouges sur la carte.

Passer la souris dessus pour voir le nom de la station.

Cliquer dessus pour voir les observations et prévisions météorologiques.

Pour changer de carte: cliquez sur les boutons verts avec une croix noire pour zoomer, sur le bouton vert avec un tiret pour effectuer un zoom arrière, ou sur les flèches vertes pour les cartes adjacentes.


METAR-TAF: